createdAt,value
2022-10-28T00:01:16.175Z,9.60
2022-10-28T00:03:45.250Z,9.73
2022-10-28T00:06:16.714Z,9.70
2022-10-28T00:08:44.205Z,10.30
2022-10-28T00:11:16.300Z,10.52
2022-10-28T00:13:44.136Z,9.43
2022-10-28T00:16:14.103Z,9.02
2022-10-28T00:18:41.693Z,10.15
2022-10-28T00:21:11.696Z,9.27
2022-10-28T00:23:38.803Z,9.15
2022-10-28T00:26:09.775Z,9.00
2022-10-28T00:28:41.292Z,8.60
2022-10-28T00:31:09.185Z,9.57
2022-10-28T00:33:36.006Z,9.48
2022-10-28T00:36:13.839Z,8.40
2022-10-28T00:38:41.345Z,8.63
2022-10-28T00:41:09.197Z,8.43
2022-10-28T00:43:39.563Z,9.38
2022-10-28T00:46:16.476Z,8.40
2022-10-28T00:48:45.714Z,8.25
2022-10-28T00:51:13.770Z,9.07
2022-10-28T00:53:44.663Z,9.02
2022-10-28T00:56:12.741Z,8.63
2022-10-28T00:58:39.916Z,8.98
2022-10-28T01:01:06.670Z,8.95
2022-10-28T01:03:33.579Z,8.23
2022-10-28T01:06:01.555Z,10.10
2022-10-28T01:08:28.401Z,9.35
2022-10-28T01:10:58.080Z,7.97
2022-10-28T01:13:27.754Z,9.52
2022-10-28T01:16:01.069Z,8.38
2022-10-28T01:18:27.692Z,9.80
2022-10-28T01:21:18.327Z,7.78
2022-10-28T01:24:22.768Z,7.35
2022-10-28T01:26:58.391Z,8.20
2022-10-28T01:29:46.061Z,8.55
2022-10-28T01:32:12.840Z,8.32
2022-10-28T01:34:51.084Z,9.55
2022-10-28T01:37:35.448Z,8.57
2022-10-28T01:40:15.859Z,8.45
2022-10-28T01:42:51.653Z,9.40
2022-10-28T01:45:29.166Z,8.55
2022-10-28T01:47:59.437Z,7.50
2022-10-28T01:50:31.840Z,7.47
2022-10-28T01:53:03.503Z,8.18
2022-10-28T01:55:47.488Z,7.78
2022-10-28T01:58:18.815Z,8.25
2022-10-28T02:00:47.157Z,8.23
2022-10-28T02:03:13.913Z,8.43
2022-10-28T02:05:48.429Z,8.43
2022-10-28T02:08:17.943Z,8.48
2022-10-28T02:11:11.594Z,7.78
2022-10-28T02:13:44.261Z,7.68
2022-10-28T02:16:20.540Z,7.55
2022-10-28T02:19:00.299Z,7.60
2022-10-28T02:21:37.021Z,8.48
2022-10-28T02:24:32.948Z,9.10
2022-10-28T02:27:25.778Z,6.97
2022-10-28T02:30:23.642Z,7.80
2022-10-28T02:32:59.535Z,8.20
2022-10-28T02:35:41.330Z,8.15
2022-10-28T02:38:12.540Z,7.50
2022-10-28T02:40:41.006Z,7.40
2022-10-28T02:43:10.645Z,8.07
2022-10-28T02:45:43.264Z,7.85
2022-10-28T02:48:25.940Z,7.60
2022-10-28T02:51:02.633Z,6.72
2022-10-28T02:53:33.360Z,7.53
2022-10-28T02:56:04.138Z,7.45
2022-10-28T02:58:39.110Z,7.35
2022-10-28T03:01:06.373Z,7.13
2022-10-28T03:03:33.123Z,7.45
2022-10-28T03:05:59.884Z,7.55
2022-10-28T03:08:26.581Z,7.07
2022-10-28T03:10:53.257Z,7.55
2022-10-28T03:13:19.897Z,7.57
2022-10-28T03:15:47.596Z,7.90
2022-10-28T03:18:14.322Z,7.45
2022-10-28T03:20:41.015Z,7.47
2022-10-28T03:23:07.723Z,7.82
2022-10-28T03:25:34.458Z,7.63
2022-10-28T03:28:01.126Z,7.20
2022-10-28T03:30:27.818Z,7.60
2022-10-28T03:32:54.884Z,6.80
2022-10-28T03:35:21.744Z,7.75
2022-10-28T03:37:48.573Z,6.75
2022-10-28T03:40:15.380Z,6.78
2022-10-28T03:42:42.464Z,6.15
2022-10-28T03:45:10.032Z,5.97
2022-10-28T03:47:37.151Z,7.03
2022-10-28T03:50:04.550Z,6.30
2022-10-28T03:52:31.347Z,6.75
2022-10-28T03:54:58.061Z,6.22
2022-10-28T03:57:24.909Z,6.55
2022-10-28T03:59:51.719Z,6.60
2022-10-28T04:02:18.540Z,6.82
2022-10-28T04:04:45.395Z,6.75
2022-10-28T04:07:12.186Z,7.82
2022-10-28T04:09:38.849Z,7.47
2022-10-28T04:14:33.033Z,7.22
2022-10-28T04:16:59.686Z,7.40
2022-10-28T04:19:26.492Z,7.32
2022-10-28T04:21:53.293Z,7.90
2022-10-28T04:24:19.967Z,7.10
2022-10-28T04:26:46.637Z,7.40
2022-10-28T04:29:13.314Z,7.78
2022-10-28T04:31:40.067Z,7.25
2022-10-28T04:34:06.720Z,7.50
2022-10-28T04:36:33.503Z,8.10
2022-10-28T04:39:00.206Z,7.03
2022-10-28T04:41:26.908Z,7.22
2022-10-28T04:43:56.062Z,7.85
2022-10-28T04:46:22.936Z,7.78
2022-10-28T04:48:49.617Z,7.70
2022-10-28T04:51:16.420Z,6.93
2022-10-28T04:53:43.053Z,7.22
2022-10-28T04:56:10.152Z,7.07
2022-10-28T04:58:36.843Z,7.30
2022-10-28T05:01:10.337Z,7.30
2022-10-28T05:03:37.220Z,6.80
2022-10-28T05:06:04.064Z,6.80
2022-10-28T05:08:30.747Z,7.10
2022-10-28T05:10:57.572Z,6.57
2022-10-28T05:13:24.267Z,7.07
2022-10-28T05:15:51.428Z,8.38
2022-10-28T05:18:18.237Z,8.77
2022-10-28T05:20:44.923Z,6.85
2022-10-28T05:23:12.425Z,5.75
2022-10-28T05:25:39.178Z,6.50
2022-10-28T05:28:05.983Z,7.78
2022-10-28T05:30:32.712Z,7.28
2022-10-28T05:33:03.971Z,7.60
2022-10-28T05:35:31.283Z,7.90
2022-10-28T05:37:58.420Z,7.57
2022-10-28T05:40:25.476Z,8.07
2022-10-28T05:42:52.555Z,8.00
2022-10-28T05:45:19.601Z,9.02
2022-10-28T05:47:47.806Z,8.40
2022-10-28T05:50:16.851Z,12.98
2022-10-28T05:52:48.377Z,9.48
2022-10-28T05:55:15.674Z,7.80
2022-10-28T05:57:42.357Z,10.38
2022-10-28T06:00:10.121Z,9.13
2022-10-28T06:02:36.806Z,8.40
2022-10-28T06:05:03.704Z,7.97
2022-10-28T06:07:31.063Z,7.57
2022-10-28T06:09:57.804Z,6.68
2022-10-28T06:12:23.215Z,7.82
2022-10-28T06:14:50.005Z,6.60
2022-10-28T06:17:16.655Z,7.05
2022-10-28T06:19:43.353Z,7.25
2022-10-28T06:22:10.832Z,7.45
2022-10-28T06:24:37.640Z,6.70
2022-10-28T06:27:05.523Z,6.93
2022-10-28T06:29:34.997Z,6.55
2022-10-28T06:32:01.751Z,8.38
2022-10-28T06:34:28.437Z,8.13
2022-10-28T06:36:55.208Z,6.68
2022-10-28T06:39:21.980Z,6.45
2022-10-28T06:41:49.099Z,6.95
2022-10-28T06:44:15.799Z,6.65
2022-10-28T06:46:44.023Z,6.07
2022-10-28T06:49:10.755Z,6.72
2022-10-28T06:51:37.517Z,7.45
2022-10-28T06:54:04.268Z,6.63
2022-10-28T06:56:30.974Z,7.25
2022-10-28T06:58:57.738Z,6.47
2022-10-28T07:01:24.542Z,6.93
2022-10-28T07:03:51.352Z,7.55
2022-10-28T07:06:18.118Z,7.57
2022-10-28T07:08:44.828Z,8.00
2022-10-28T07:11:11.700Z,7.63
2022-10-28T07:13:38.450Z,10.18
2022-10-28T07:16:05.506Z,9.27
2022-10-28T07:18:32.445Z,9.15
2022-10-28T07:21:00.964Z,9.52
2022-10-28T07:23:28.286Z,9.85
2022-10-28T07:25:56.163Z,11.73
2022-10-28T07:28:24.629Z,10.13
2022-10-28T07:30:51.506Z,9.68
2022-10-28T07:33:18.383Z,9.80
2022-10-28T07:35:45.152Z,8.52
2022-10-28T07:38:12.389Z,9.18
2022-10-28T07:40:39.127Z,9.80
2022-10-28T07:43:05.950Z,9.57
2022-10-28T07:45:33.869Z,8.85
2022-10-28T07:48:00.561Z,8.43
2022-10-28T07:50:27.328Z,8.80
2022-10-28T07:52:54.376Z,9.00
2022-10-28T07:55:21.577Z,9.30
2022-10-28T07:57:49.041Z,9.52
2022-10-28T08:00:16.535Z,7.38
2022-10-28T08:02:43.332Z,6.90
2022-10-28T08:05:12.805Z,7.25
2022-10-28T08:07:39.513Z,7.38
2022-10-28T08:10:06.954Z,6.65
2022-10-28T08:12:34.000Z,6.90
2022-10-28T08:15:00.767Z,6.60
2022-10-28T08:17:27.458Z,5.82
2022-10-28T08:19:57.557Z,6.07
2022-10-28T08:22:24.672Z,6.03
2022-10-28T08:24:51.427Z,7.18
2022-10-28T08:27:18.126Z,7.18
2022-10-28T08:29:44.853Z,7.22
2022-10-28T08:32:11.766Z,6.75
2022-10-28T08:34:42.487Z,6.82
2022-10-28T08:37:10.656Z,7.78
2022-10-28T08:39:37.403Z,10.40
2022-10-28T08:42:25.752Z,10.40
2022-10-28T08:45:20.213Z,6.53
2022-10-28T08:48:11.319Z,6.57
2022-10-28T08:50:52.749Z,7.63
2022-10-28T08:53:25.733Z,5.22
2022-10-28T08:55:55.569Z,5.88
2022-10-28T08:58:25.246Z,9.20
2022-10-28T09:00:55.196Z,8.93
2022-10-28T09:03:27.334Z,6.05
2022-10-28T09:06:00.870Z,5.18
2022-10-28T09:08:30.776Z,5.10
2022-10-28T09:11:00.514Z,6.05
2022-10-28T09:13:39.287Z,5.25
2022-10-28T09:16:29.679Z,6.40
2022-10-28T09:19:08.828Z,6.78
2022-10-28T09:21:48.745Z,5.55
2022-10-28T09:24:33.771Z,5.78
2022-10-28T09:27:15.284Z,6.13
2022-10-28T09:29:47.714Z,4.65
2022-10-28T09:32:29.477Z,4.63
2022-10-28T09:35:24.793Z,4.85
2022-10-28T09:38:21.625Z,4.78
2022-10-28T09:41:21.678Z,4.28
2022-10-28T09:44:13.745Z,5.15
2022-10-28T09:46:41.879Z,4.45
2022-10-28T09:49:18.208Z,4.15
2022-10-28T09:51:51.956Z,4.25
2022-10-28T09:54:27.739Z,4.47
2022-10-28T09:56:54.960Z,4.60
2022-10-28T09:59:21.713Z,3.83
2022-10-28T10:01:48.509Z,3.50
2022-10-28T10:04:21.709Z,5.35
2022-10-28T10:07:11.342Z,5.32
2022-10-28T10:09:39.051Z,4.78
2022-10-28T10:12:09.758Z,4.78
2022-10-28T10:14:42.777Z,4.47
2022-10-28T10:17:14.826Z,4.97
2022-10-28T10:20:08.753Z,4.50
2022-10-28T10:22:46.591Z,6.07
2022-10-28T10:25:19.564Z,10.48
2022-10-28T10:28:00.441Z,7.78
2022-10-28T10:30:37.927Z,8.77
2022-10-28T10:33:05.811Z,12.07
2022-10-28T10:35:35.041Z,9.65
2022-10-28T10:38:06.589Z,12.93
2022-10-28T10:40:51.093Z,8.15
2022-10-28T10:43:17.790Z,6.13
2022-10-28T10:45:53.509Z,5.32
2022-10-28T10:48:20.322Z,4.85
2022-10-28T10:50:48.600Z,4.25
2022-10-28T10:53:28.718Z,4.30
2022-10-28T10:56:02.108Z,4.65
2022-10-28T10:58:32.517Z,4.68
2022-10-28T11:01:02.123Z,4.78
2022-10-28T11:03:38.432Z,4.93
2022-10-28T11:06:24.265Z,5.25
2022-10-28T11:09:01.371Z,5.65
2022-10-28T11:11:37.183Z,3.67
2022-10-28T11:14:13.374Z,5.03
2022-10-28T11:16:51.219Z,4.03
2022-10-28T11:19:24.013Z,4.07
2022-10-28T11:22:14.760Z,3.72
2022-10-28T11:25:15.440Z,3.72
2022-10-28T11:28:07.488Z,5.15
2022-10-28T11:30:46.191Z,9.57
2022-10-28T11:33:29.278Z,5.13
2022-10-28T11:36:29.203Z,5.55
2022-10-28T11:39:26.821Z,4.20
2022-10-28T11:42:23.708Z,4.47
2022-10-28T11:45:02.345Z,5.35
2022-10-28T11:48:03.130Z,6.90
2022-10-28T11:50:40.484Z,5.40
2022-10-28T11:53:19.009Z,3.83
2022-10-28T11:55:45.684Z,3.90
2022-10-28T11:58:27.836Z,3.90
2022-10-28T12:01:09.050Z,4.13
2022-10-28T12:03:44.869Z,3.95
2022-10-28T12:06:49.457Z,4.15
2022-10-28T12:09:36.156Z,4.15
2022-10-28T12:12:09.273Z,4.07
2022-10-28T12:14:44.771Z,3.70
2022-10-28T12:17:28.393Z,4.30
2022-10-28T12:19:59.522Z,4.38
2022-10-28T12:22:44.675Z,4.38
2022-10-28T12:25:18.130Z,6.20
2022-10-28T12:27:47.447Z,9.38
2022-10-28T12:30:27.359Z,6.50
2022-10-28T12:33:00.304Z,6.93
2022-10-28T12:35:52.792Z,6.00
2022-10-28T12:38:26.929Z,6.72
2022-10-28T12:41:01.478Z,15.15
2022-10-28T12:43:39.211Z,6.80
2022-10-28T12:46:09.990Z,6.00
2022-10-28T12:48:51.471Z,4.03
2022-10-28T12:51:27.720Z,4.13
2022-10-28T12:54:08.095Z,3.22
2022-10-28T12:56:40.364Z,3.20
2022-10-28T12:59:12.119Z,2.97
2022-10-28T13:01:39.671Z,2.50
2022-10-28T13:04:06.789Z,3.53
2022-10-28T13:06:54.499Z,3.28
2022-10-28T13:09:45.655Z,3.20
2022-10-28T13:12:15.292Z,2.40
2022-10-28T13:14:47.667Z,2.95
2022-10-28T13:17:30.345Z,3.25
2022-10-28T13:20:12.399Z,3.75
2022-10-28T13:23:00.991Z,3.20
2022-10-28T13:25:39.986Z,3.83
2022-10-28T13:28:12.152Z,3.35
2022-10-28T13:31:18.707Z,2.92
2022-10-28T13:33:55.591Z,3.10
2022-10-28T13:36:31.253Z,3.08
2022-10-28T13:39:00.557Z,2.88
2022-10-28T13:41:29.002Z,4.05
2022-10-28T13:43:56.908Z,3.20
2022-10-28T13:47:01.446Z,2.80
2022-10-28T13:49:35.530Z,2.75
2022-10-28T13:52:08.167Z,2.47
2022-10-28T13:54:43.679Z,3.20
2022-10-28T13:57:26.064Z,2.78
2022-10-28T13:59:58.072Z,3.22
2022-10-28T14:02:37.811Z,3.22
2022-10-28T14:05:25.659Z,2.70
2022-10-28T14:07:58.703Z,3.33
2022-10-28T14:10:25.517Z,4.65
2022-10-28T14:13:20.374Z,3.22
2022-10-28T14:15:48.436Z,4.80
2022-10-28T14:18:41.475Z,5.97
2022-10-28T14:21:02.441Z,4.15
2022-10-28T14:23:29.159Z,5.40
2022-10-28T14:25:59.714Z,3.30
2022-10-28T14:28:32.032Z,3.03
2022-10-28T14:31:10.791Z,4.88
2022-10-28T14:33:37.678Z,3.20
2022-10-28T14:36:19.752Z,3.65
2022-10-28T14:39:11.717Z,3.05
2022-10-28T14:42:21.343Z,2.92
2022-10-28T14:45:14.270Z,2.70
2022-10-28T14:48:18.790Z,2.67
2022-10-28T14:50:47.993Z,2.60
2022-10-28T14:53:37.903Z,2.88
2022-10-28T14:56:16.308Z,2.80
2022-10-28T14:58:44.560Z,2.80
2022-10-28T15:01:17.386Z,3.08
2022-10-28T15:03:57.917Z,3.15
2022-10-28T15:06:37.231Z,3.33
2022-10-28T15:09:05.971Z,3.70
2022-10-28T15:11:34.090Z,3.45
2022-10-28T15:14:24.887Z,3.00
2022-10-28T15:16:52.254Z,3.63
2022-10-28T15:19:25.433Z,3.13
2022-10-28T15:22:04.631Z,3.38
2022-10-28T15:24:31.675Z,3.65
2022-10-28T15:26:58.829Z,5.20
2022-10-28T15:29:26.069Z,4.18
2022-10-28T15:32:20.073Z,5.13
2022-10-28T15:34:47.955Z,6.20
2022-10-28T15:37:23.363Z,5.20
2022-10-28T15:39:52.415Z,4.00
2022-10-28T15:42:55.940Z,3.80
2022-10-28T15:45:28.273Z,4.28
2022-10-28T15:47:57.156Z,3.88
2022-10-28T15:50:27.565Z,4.63
2022-10-28T15:53:22.363Z,4.47
2022-10-28T15:56:09.469Z,4.05
2022-10-28T15:58:40.166Z,4.88
2022-10-28T16:01:26.767Z,4.93
2022-10-28T16:03:53.685Z,5.07
2022-10-28T16:06:26.182Z,4.07
2022-10-28T16:09:19.902Z,5.40
2022-10-28T16:11:50.083Z,4.78
2022-10-28T16:14:32.381Z,5.28
2022-10-28T16:17:23.682Z,4.85
2022-10-28T16:20:17.080Z,4.95
2022-10-28T16:22:46.528Z,5.15
2022-10-28T16:25:17.150Z,4.82
2022-10-28T16:27:43.914Z,5.22
2022-10-28T16:30:11.284Z,4.80
2022-10-28T16:32:41.015Z,5.70
2022-10-28T16:35:26.539Z,5.68
2022-10-28T16:37:55.522Z,5.50
2022-10-28T16:40:51.071Z,5.22
2022-10-28T16:43:15.942Z,5.45
2022-10-28T16:45:42.656Z,4.93
2022-10-28T16:48:16.068Z,6.00
2022-10-28T16:51:13.894Z,6.97
2022-10-28T16:53:42.571Z,5.72
2022-10-28T16:56:13.909Z,7.70
2022-10-28T16:58:44.920Z,7.53
2022-10-28T17:01:12.062Z,6.07
2022-10-28T17:03:38.892Z,5.95
2022-10-28T17:06:05.778Z,6.28
2022-10-28T17:08:57.031Z,6.00
2022-10-28T17:11:20.606Z,5.65
2022-10-28T17:13:47.990Z,5.97
2022-10-28T17:16:14.831Z,6.47
2022-10-28T17:18:43.696Z,5.57
2022-10-28T17:21:10.481Z,12.98
2022-10-28T17:23:39.259Z,11.75
2022-10-28T17:26:06.107Z,5.82
2022-10-28T17:28:32.787Z,6.85
2022-10-28T17:31:04.267Z,7.43
2022-10-28T17:33:31.168Z,5.22
2022-10-28T17:36:05.865Z,7.88
2022-10-28T17:38:32.692Z,7.22
2022-10-28T17:40:59.685Z,7.45
2022-10-28T17:43:26.429Z,7.50
2022-10-28T17:46:02.373Z,5.45
2022-10-28T17:48:29.486Z,5.55
2022-10-28T17:50:56.174Z,5.72
2022-10-28T17:53:22.993Z,6.65
2022-10-28T17:55:59.705Z,5.95
2022-10-28T17:58:26.627Z,9.68
2022-10-28T18:01:11.804Z,7.57
2022-10-28T18:03:39.286Z,7.72
2022-10-28T18:06:12.980Z,5.78
2022-10-28T18:08:41.660Z,5.63
2022-10-28T18:11:10.462Z,4.40
2022-10-28T18:13:39.205Z,12.15
2022-10-28T18:16:09.011Z,5.78
2022-10-28T18:18:41.039Z,7.22
2022-10-28T18:21:10.980Z,9.93
2022-10-28T18:23:37.926Z,5.68
2022-10-28T18:26:07.282Z,6.80
2022-10-28T18:28:36.155Z,6.32
2022-10-28T18:31:07.871Z,7.40
2022-10-28T18:33:35.091Z,5.70
2022-10-28T18:36:06.147Z,11.20
2022-10-28T18:38:34.100Z,7.80
2022-10-28T18:41:00.939Z,6.22
2022-10-28T18:43:27.911Z,7.50
2022-10-28T18:45:54.768Z,6.13
2022-10-28T18:48:21.561Z,6.15
2022-10-28T18:51:04.954Z,4.45
2022-10-28T18:53:34.607Z,4.90
2022-10-28T18:56:01.359Z,5.07
2022-10-28T18:58:28.262Z,5.05
2022-10-28T19:01:06.930Z,4.85
2022-10-28T19:03:33.990Z,4.95
2022-10-28T19:06:02.342Z,4.25
2022-10-28T19:08:29.005Z,5.10
2022-10-28T19:11:00.487Z,4.43
2022-10-28T19:13:27.564Z,5.05
2022-10-28T19:15:54.484Z,4.70
2022-10-28T19:18:21.948Z,4.22
2022-10-28T19:20:48.680Z,4.30
2022-10-28T19:23:15.405Z,4.25
2022-10-28T19:25:42.309Z,4.63
2022-10-28T19:28:09.061Z,5.53
2022-10-28T19:30:37.206Z,5.95
2022-10-28T19:33:04.020Z,6.30
2022-10-28T19:35:33.203Z,6.00
2022-10-28T19:38:00.058Z,4.90
2022-10-28T19:40:26.780Z,5.68
2022-10-28T19:42:54.300Z,4.80
2022-10-28T19:45:21.050Z,6.53
2022-10-28T19:47:47.840Z,5.50
2022-10-28T19:50:14.704Z,5.80
2022-10-28T19:52:44.446Z,6.63
2022-10-28T19:55:14.920Z,6.32
2022-10-28T19:57:41.891Z,6.28
2022-10-28T20:00:09.921Z,6.97
2022-10-28T20:02:36.745Z,7.22
2022-10-28T20:05:03.625Z,7.43
2022-10-28T20:07:30.377Z,8.00
2022-10-28T20:12:29.020Z,8.10
2022-10-28T20:14:55.745Z,9.48
2022-10-28T20:17:22.497Z,9.13
2022-10-28T20:19:49.339Z,10.35
2022-10-28T20:22:17.193Z,9.27
2022-10-28T20:24:43.987Z,10.15
2022-10-28T20:27:10.695Z,9.40
2022-10-28T20:29:37.400Z,13.88
2022-10-28T20:32:04.546Z,12.38
2022-10-28T20:34:31.199Z,13.88
2022-10-28T20:36:57.866Z,10.40
2022-10-28T20:39:25.387Z,15.18
2022-10-28T20:41:52.196Z,13.52
2022-10-28T20:44:19.049Z,12.63
2022-10-28T20:46:48.147Z,14.50
2022-10-28T20:49:15.355Z,16.60
2022-10-28T20:51:42.454Z,15.75
2022-10-28T20:54:09.503Z,17.40
2022-10-28T20:56:38.699Z,13.85
2022-10-28T20:59:06.294Z,11.20
2022-10-28T21:01:36.408Z,10.85
2022-10-28T21:04:09.039Z,8.15
2022-10-28T21:06:38.495Z,8.15
2022-10-28T21:09:05.559Z,6.68
2022-10-28T21:11:32.712Z,5.65
2022-10-28T21:14:00.919Z,5.65
2022-10-28T21:16:28.453Z,6.15
2022-10-28T21:18:55.490Z,5.82
2022-10-28T21:21:23.753Z,6.88
2022-10-28T21:23:50.892Z,5.40
2022-10-28T21:26:17.662Z,6.18
2022-10-28T21:28:48.113Z,5.57
2022-10-28T21:31:17.079Z,9.32
2022-10-28T21:33:44.465Z,11.13
2022-10-28T21:36:14.445Z,10.70
2022-10-28T21:38:41.535Z,6.88
2022-10-28T21:41:12.266Z,9.77
2022-10-28T21:43:41.090Z,8.85
2022-10-28T21:46:08.522Z,7.40
2022-10-28T21:48:36.859Z,7.85
2022-10-28T21:51:09.866Z,15.55
2022-10-28T21:53:40.705Z,16.13
2022-10-28T21:56:19.895Z,15.35
2022-10-28T21:58:48.745Z,13.13
2022-10-28T22:01:21.260Z,12.13
2022-10-28T22:03:48.641Z,12.35
2022-10-28T22:06:15.336Z,9.27
2022-10-28T22:08:42.373Z,8.32
2022-10-28T22:11:15.125Z,7.55
2022-10-28T22:13:42.177Z,8.00
2022-10-28T22:16:12.651Z,6.50
2022-10-28T22:18:39.807Z,7.88
2022-10-28T22:21:27.210Z,10.52
2022-10-28T22:23:54.165Z,12.18
2022-10-28T22:26:26.116Z,9.38
2022-10-28T22:28:53.359Z,7.72
2022-10-28T22:31:31.445Z,8.45
2022-10-28T22:33:58.304Z,7.70
2022-10-28T22:36:27.857Z,5.95
2022-10-28T22:38:54.656Z,6.20
2022-10-28T22:41:26.283Z,5.43
2022-10-28T22:43:55.076Z,4.78
2022-10-28T22:46:23.594Z,4.90
2022-10-28T22:48:50.322Z,4.55
2022-10-28T22:51:17.181Z,4.32
2022-10-28T22:53:44.268Z,4.97
2022-10-28T22:56:15.682Z,4.93
2022-10-28T22:58:42.644Z,4.88
2022-10-28T23:01:15.385Z,6.20
2022-10-28T23:03:44.680Z,5.28
2022-10-28T23:06:12.848Z,4.90
2022-10-28T23:08:41.162Z,4.20
2022-10-28T23:11:08.773Z,4.15
2022-10-28T23:16:10.448Z,3.65
2022-10-28T23:18:37.866Z,5.20
2022-10-28T23:21:12.990Z,5.00
2022-10-28T23:23:40.545Z,4.57
2022-10-28T23:26:09.330Z,4.22
2022-10-28T23:28:36.177Z,4.43
2022-10-28T23:31:04.099Z,4.05
2022-10-28T23:33:32.084Z,4.60
2022-10-28T23:36:00.515Z,3.58
2022-10-28T23:38:27.462Z,3.97
2022-10-28T23:41:02.799Z,5.20
2022-10-28T23:43:30.882Z,3.75
2022-10-28T23:45:58.546Z,3.63
2022-10-28T23:48:26.949Z,3.65
2022-10-28T23:50:54.289Z,5.00
2022-10-28T23:53:21.353Z,4.00
2022-10-28T23:55:49.508Z,4.05
2022-10-28T23:58:17.943Z,4.10
